Pollock, SD

4:28 PM CDT on August 20, 2014 (GMT -0500)
Heier Farm | Change Station
CLOSE
Current Station
Personal Weather Station
Location: Hague, ND
Elevation: 1841 ft
Nearby Weather Stations

Elev 1841 ft 46.00 °N, 100.05 °W | Updated 9 minutes ago

Mostly Cloudy
Mostly Cloudy
79.5 °F
Feels Like 82 °F
N
13.0
Wind Variable Wind from SE

Today
High -- | Low -- °F
--% Chance of Precip.
Yesterday
High -- | Low -- °F
Precip. -- in
6:47 AM 8:41 PM
Waning Crescent, 19% visible
Pressure 29.64 in
Visibility 10.0 miles
Clouds Mostly Cloudy 11000 ft
Heat Index 82 °F
Dew Point 68 °F
Humidity 68%
Rainfall 0.00 in
Snow Depth Not available.
UV 4 out of 12
Pollen 9.20 out of 12
Air Quality Not available.
Flu Activity Not available.
METAR KMBG 202052Z AUTO 15014KT 10SM BKN110 27/21 A2968 RMK AO2 SLP037 T02670211 56009

More Conditions Fewer Conditions

Pressure 29.64 in
Visibility 10.0 miles
Clouds Mostly Cloudy 11000 ft
Heat Index 82 °F
Dew Point 68 °F
Humidity 68%
Rainfall 0.00 in
Snow Depth Not available.
UV 4 out of 12
Pollen 9.20 out of 12
Air Quality Not available.
Flu Activity Not available.
METAR KMBG 202052Z AUTO 15014KT 10SM BKN110 27/21 A2968 RMK AO2 SLP037 T02670211 56009

More Conditions Fewer Conditions

10-Day Weather Forecast

Almanac

Astronomy

Aug. 20, 2014 Rise Set
Actual Time 6:47 AM CDT 8:41 PM CDT
Civil Twilight 6:15 AM CDT 9:12 PM CDT
Nautical Twilight 5:36 AM CDT 9:51 PM CDT
Astronomical Twilight 4:53 AM CDT 10:34 PM CDT
Moon 2:22 AM CDT 5:32 PM CDT
Length of Visible Light 14h 57m
Length of Day
13h 53m
Tomorrow will be 2m 58s shorter.
Waning Crescent, 19% of the Moon is Illuminated
Today
Waning Crescent
Aug 25
New
Sep 2
First Quarter
Sep 8
Full
Sep 15
Last Quarter

Today's Extremes

State Highs State Lows

Community

WunderPhotos

Upload Photos

1,745,763 photos uploaded!

WunderBlogs® & News

Nearby

Snow Depth

Station Depth Elevation
Blind Park 0 in 6890 ft

Earthquake Activity

City Distance Mag. Time & Date
No recent earthquake activity has been reported nearby.
Minimum magnitude displayed is 2.5.

Coastal Water Temperatures

Place Temperature
No Stations Reporting

Nearby Weather Stations